Time;durP1;ratioP1;P1;durP2;ratioP2;P2;SDS_P1;SDS_P2;PMS_P1;PMS_P2;Temp;Humidity;BMP_temperature;BMP_pressure;BME280_temperature;BME280_humidity;BME280_pressure;Samples;Min_cycle;Max_cycle;Signal;HPM_P1;HPM_P2
2022/02/28 00:00:44;;;;;;;28.05;13.85;;;3.70;99.90;;;;;;5020035;28;20040;-71
2022/02/28 00:03:09;;;;;;;25.05;12.85;;;3.60;99.90;;;;;;5018417;28;20029;-71
2022/02/28 00:05:35;;;;;;;28.65;13.90;;;3.60;99.90;;;;;;5020163;28;20029;-71
2022/02/28 00:08:01;;;;;;;27.02;14.48;;;3.60;99.90;;;;;;5021166;28;20021;-69
2022/02/28 00:10:27;;;;;;;29.38;14.68;;;3.60;99.90;;;;;;5020879;28;20030;-71
2022/02/28 00:12:52;;;;;;;27.08;13.43;;;3.60;99.90;;;;;;5021505;28;20216;-70
2022/02/28 00:15:20;;;;;;;27.90;14.35;;;3.60;99.90;;;;;;5021585;28;20483;-71
2022/02/28 00:17:46;;;;;;;26.38;12.65;;;3.50;99.90;;;;;;5019846;28;20026;-71
2022/02/28 00:20:15;;;;;;;26.08;13.68;;;3.50;99.90;;;;;;5017231;28;20045;-69
2022/02/28 00:22:41;;;;;;;25.10;13.77;;;3.50;99.90;;;;;;5018588;28;20041;-70
2022/02/28 00:25:09;;;;;;;25.80;13.93;;;3.50;99.90;;;;;;5019035;28;20037;-71
2022/02/28 00:27:35;;;;;;;27.30;12.68;;;3.50;99.90;;;;;;5020556;28;20039;-72
2022/02/28 00:30:01;;;;;;;27.98;14.50;;;3.50;99.90;;;;;;5003268;28;20080;-71
2022/02/28 00:32:28;;;;;;;26.73;14.20;;;3.50;99.90;;;;;;5003700;28;20518;-70
2022/02/28 00:34:53;;;;;;;28.73;13.95;;;3.50;99.90;;;;;;5020766;28;20487;-71
2022/02/28 00:37:20;;;;;;;27.67;14.00;;;3.40;99.90;;;;;;5021696;28;20048;-71
2022/02/28 00:39:45;;;;;;;29.75;14.10;;;3.40;99.90;;;;;;5021150;28;20540;-71
2022/02/28 00:42:13;;;;;;;27.58;13.50;;;3.40;99.90;;;;;;5019739;28;20065;-71
2022/02/28 00:44:39;;;;;;;26.30;13.38;;;3.50;99.90;;;;;;5023826;28;20622;-71
2022/02/28 00:47:06;;;;;;;30.50;14.27;;;3.40;99.90;;;;;;5019997;28;20022;-71
2022/02/28 00:49:32;;;;;;;29.90;13.18;;;3.40;99.90;;;;;;5021879;28;20091;-71
2022/02/28 00:51:58;;;;;;;28.95;14.43;;;3.40;99.90;;;;;;5019573;28;20109;-72
2022/02/28 00:54:25;;;;;;;30.38;14.48;;;3.40;99.90;;;;;;5020498;28;20594;-71
2022/02/28 00:56:54;;;;;;;27.05;13.98;;;3.30;99.90;;;;;;5019557;28;20029;-71
2022/02/28 00:59:20;;;;;;;26.85;13.20;;;3.30;99.90;;;;;;5021293;28;20483;-70
2022/02/28 01:01:46;;;;;;;25.90;12.32;;;3.30;99.90;;;;;;5019902;28;20048;-72
2022/02/28 01:04:12;;;;;;;24.63;13.73;;;3.40;99.90;;;;;;5021723;28;20026;-72
2022/02/28 01:06:38;;;;;;;26.83;14.02;;;3.30;99.90;;;;;;5021444;28;20037;-72
2022/02/28 01:09:05;;;;;;;26.48;12.45;;;3.30;99.90;;;;;;5019670;28;20025;-71
2022/02/28 01:11:30;;;;;;;23.40;12.98;;;3.20;99.90;;;;;;5021039;28;20072;-71
2022/02/28 01:13:57;;;;;;;28.02;14.00;;;3.20;99.90;;;;;;5023898;28;20057;-70
2022/02/28 01:16:26;;;;;;;28.15;14.20;;;3.20;99.90;;;;;;5019113;28;20121;-70
2022/02/28 01:18:53;;;;;;;26.88;13.40;;;3.20;99.90;;;;;;5019801;28;20026;-71
2022/02/28 01:21:19;;;;;;;27.95;13.80;;;3.20;99.90;;;;;;5018694;28;20072;-70
2022/02/28 01:23:45;;;;;;;27.17;14.35;;;3.20;99.90;;;;;;5024674;28;20046;-69
2022/02/28 01:26:11;;;;;;;27.80;14.15;;;3.10;99.90;;;;;;5022953;28;20450;-70
2022/02/28 01:28:37;;;;;;;28.98;14.68;;;3.10;99.90;;;;;;5019095;28;20041;-71
2022/02/28 01:31:03;;;;;;;29.08;14.32;;;3.10;99.90;;;;;;5019454;28;20033;-70
2022/02/28 01:33:28;;;;;;;28.02;14.02;;;3.10;99.90;;;;;;5020475;28;20083;-71
2022/02/28 01:35:54;;;;;;;24.13;12.82;;;3.10;99.90;;;;;;5019773;28;20044;-71
2022/02/28 01:38:20;;;;;;;25.90;14.27;;;3.10;99.90;;;;;;5003937;28;20420;-71
2022/02/28 01:40:46;;;;;;;28.60;13.00;;;3.10;99.90;;;;;;5020297;28;20029;-71
2022/02/28 01:43:11;;;;;;;29.27;13.68;;;3.10;99.90;;;;;;5017470;28;20140;-71
2022/02/28 01:45:37;;;;;;;26.70;13.68;;;3.10;99.90;;;;;;5025932;28;20037;-71
2022/02/28 01:48:04;;;;;;;30.67;14.18;;;3.00;99.90;;;;;;5010625;28;20030;-70
2022/02/28 01:50:30;;;;;;;26.85;13.07;;;3.00;99.90;;;;;;5028986;28;20044;-71
2022/02/28 01:52:56;;;;;;;26.08;13.50;;;3.00;99.90;;;;;;5018283;28;20017;-71
2022/02/28 01:55:24;;;;;;;28.65;13.55;;;3.00;99.90;;;;;;5020922;28;21183;-71
2022/02/28 01:57:51;;;;;;;29.52;14.70;;;3.00;99.90;;;;;;5019559;28;20017;-71
2022/02/28 02:00:22;;;;;;;26.25;13.73;;;2.90;99.90;;;;;;5018325;28;20120;-71
2022/02/28 02:02:49;;;;;;;25.75;13.32;;;2.90;99.90;;;;;;5039415;28;20021;-72
2022/02/28 02:05:15;;;;;;;27.08;13.35;;;2.90;99.90;;;;;;5019479;28;20091;-71
2022/02/28 02:07:41;;;;;;;26.35;12.82;;;2.90;99.90;;;;;;5018430;28;20026;-72
2022/02/28 02:10:10;;;;;;;23.80;13.20;;;2.90;99.90;;;;;;5019379;28;20041;-71
2022/02/28 02:12:38;;;;;;;29.95;12.35;;;2.90;99.90;;;;;;5017286;28;20036;-71
2022/02/28 02:15:09;;;;;;;26.15;13.55;;;2.80;99.90;;;;;;5018705;28;20037;-71
2022/02/28 02:17:36;;;;;;;30.15;13.55;;;2.90;99.90;;;;;;5017582;28;20026;-71
2022/02/28 02:20:07;;;;;;;27.05;13.10;;;2.90;99.90;;;;;;5019507;28;20033;-72
2022/02/28 02:22:33;;;;;;;26.50;12.90;;;2.90;99.90;;;;;;5019394;28;20411;-70
2022/02/28 02:24:59;;;;;;;28.67;14.00;;;2.90;99.90;;;;;;5002161;28;20041;-70
2022/02/28 02:27:27;;;;;;;28.20;14.50;;;2.80;99.90;;;;;;5019806;28;20036;-71
2022/02/28 02:29:53;;;;;;;25.00;12.75;;;2.80;99.90;;;;;;5018958;28;20037;-70
2022/02/28 02:32:19;;;;;;;26.65;13.50;;;2.80;99.90;;;;;;5016802;28;20025;-71
2022/02/28 02:34:45;;;;;;;26.65;13.23;;;2.80;99.90;;;;;;5020270;28;20048;-71
2022/02/28 02:37:12;;;;;;;29.00;13.13;;;2.70;99.90;;;;;;5016656;28;20026;-70
2022/02/28 02:39:43;;;;;;;24.35;12.63;;;2.70;99.90;;;;;;5019832;28;20432;-70
2022/02/28 02:42:09;;;;;;;29.48;13.75;;;2.70;99.90;;;;;;5030734;28;20040;-71
2022/02/28 02:44:37;;;;;;;27.25;12.68;;;2.70;99.90;;;;;;5035178;28;20041;-71
2022/02/28 02:47:04;;;;;;;27.80;12.73;;;2.70;99.90;;;;;;5024174;28;20036;-71
2022/02/28 02:49:30;;;;;;;27.58;13.57;;;2.70;99.90;;;;;;5023930;28;20373;-71
2022/02/28 02:51:56;;;;;;;26.60;12.75;;;2.70;99.90;;;;;;5021633;28;20029;-71
2022/02/28 02:54:23;;;;;;;26.02;13.15;;;2.60;99.90;;;;;;5023230;28;20577;-71
2022/02/28 02:56:49;;;;;;;25.52;13.02;;;2.60;99.90;;;;;;5023608;28;20408;-70
2022/02/28 02:59:14;;;;;;;27.63;13.15;;;2.60;99.90;;;;;;5023751;28;20029;-71
2022/02/28 03:01:40;;;;;;;28.00;13.57;;;2.60;99.90;;;;;;5023294;28;20597;-71
2022/02/28 03:04:06;;;;;;;30.77;13.60;;;2.60;99.90;;;;;;5022066;28;20043;-70
2022/02/28 03:06:34;;;;;;;26.13;12.95;;;2.50;99.90;;;;;;5050028;28;20034;-71
2022/02/28 03:09:00;;;;;;;30.63;13.48;;;2.50;99.90;;;;;;5023008;28;20029;-71
2022/02/28 03:11:27;;;;;;;25.52;12.90;;;2.50;99.90;;;;;;5034502;23;20049;-75
2022/02/28 03:13:52;;;;;;;26.60;13.82;;;2.50;99.90;;;;;;5022716;28;20030;-75
2022/02/28 03:16:18;;;;;;;25.92;13.25;;;2.50;99.90;;;;;;5019097;28;20112;-75
2022/02/28 03:18:43;;;;;;;28.30;13.90;;;2.50;99.90;;;;;;5006827;28;20022;-75
2022/02/28 03:21:09;;;;;;;26.50;13.32;;;2.50;99.90;;;;;;5001508;28;20670;-73
2022/02/28 03:23:35;;;;;;;29.15;14.57;;;2.50;99.90;;;;;;4994927;28;20041;-73
2022/02/28 03:26:01;;;;;;;25.15;13.30;;;2.40;99.90;;;;;;5010014;28;20027;-73
2022/02/28 03:28:29;;;;;;;29.48;15.02;;;2.40;99.90;;;;;;4993756;28;20030;-74
2022/02/28 03:30:55;;;;;;;29.65;13.88;;;2.40;99.90;;;;;;4992980;28;20049;-73
2022/02/28 03:33:21;;;;;;;31.77;14.52;;;2.40;99.90;;;;;;4993298;28;20021;-74
2022/02/28 03:35:46;;;;;;;28.70;13.98;;;2.40;99.90;;;;;;4995159;28;20900;-74
2022/02/28 03:38:12;;;;;;;28.63;14.20;;;2.40;99.90;;;;;;4996385;28;20512;-74
2022/02/28 03:40:38;;;;;;;28.40;13.95;;;2.30;99.90;;;;;;4993335;28;20029;-74
2022/02/28 03:43:08;;;;;;;31.08;13.95;;;2.40;99.90;;;;;;4977711;28;20400;-74
2022/02/28 03:45:34;;;;;;;27.48;13.75;;;2.40;99.90;;;;;;4998829;28;21070;-74
2022/02/28 03:48:00;;;;;;;29.45;13.82;;;2.40;99.90;;;;;;4993466;28;20503;-74
2022/02/28 03:50:25;;;;;;;33.17;14.80;;;2.40;99.90;;;;;;4995725;28;20018;-74
2022/02/28 03:52:52;;;;;;;28.10;14.40;;;2.40;99.90;;;;;;4995958;28;20027;-74
2022/02/28 03:55:17;;;;;;;33.63;15.48;;;2.30;99.90;;;;;;4997879;28;20082;-74
2022/02/28 03:57:43;;;;;;;29.10;14.07;;;2.30;99.90;;;;;;4996927;28;20113;-74
2022/02/28 04:00:09;;;;;;;25.60;13.77;;;2.30;99.90;;;;;;4996993;28;20034;-74
2022/02/28 04:02:37;;;;;;;31.23;15.18;;;2.30;99.90;;;;;;4994842;28;20164;-74
2022/02/28 04:05:03;;;;;;;28.67;14.32;;;2.30;99.90;;;;;;4991589;28;20030;-74
2022/02/28 04:07:29;;;;;;;34.72;15.25;;;2.30;99.90;;;;;;4996831;28;20034;-74
2022/02/28 04:09:57;;;;;;;30.77;15.05;;;2.30;99.90;;;;;;4994348;28;20022;-74
2022/02/28 04:12:23;;;;;;;30.05;14.63;;;2.30;99.90;;;;;;4977753;28;20030;-74
2022/02/28 04:14:49;;;;;;;28.55;14.52;;;2.20;99.90;;;;;;4995610;28;20025;-74
2022/02/28 04:17:14;;;;;;;28.70;14.48;;;2.20;99.90;;;;;;4993311;28;20358;-75
2022/02/28 04:19:41;;;;;;;29.63;14.32;;;2.20;99.90;;;;;;4995231;28;20387;-74
2022/02/28 04:22:07;;;;;;;32.58;14.80;;;2.20;99.90;;;;;;4996658;28;20033;-74
2022/02/28 04:24:35;;;;;;;31.45;15.02;;;2.20;99.90;;;;;;4994740;28;20082;-74
2022/02/28 04:27:01;;;;;;;26.70;14.88;;;2.20;99.90;;;;;;4993030;28;20030;-74
2022/02/28 04:29:27;;;;;;;29.88;14.30;;;2.10;99.90;;;;;;4995497;28;20034;-74
2022/02/28 04:31:53;;;;;;;29.13;14.77;;;2.10;99.90;;;;;;4972740;28;20026;-74
2022/02/28 04:34:19;;;;;;;32.83;14.18;;;2.10;99.90;;;;;;4980870;28;20161;-73
2022/02/28 04:36:44;;;;;;;26.63;13.00;;;2.10;99.90;;;;;;4993785;28;20496;-76
2022/02/28 04:39:11;;;;;;;37.55;14.95;;;2.10;99.90;;;;;;4996118;28;20483;-74
2022/02/28 04:41:36;;;;;;;32.80;15.23;;;2.10;99.90;;;;;;4991824;28;20029;-74
2022/02/28 04:44:03;;;;;;;32.78;14.70;;;2.10;99.90;;;;;;4995544;28;20558;-74
2022/02/28 04:46:29;;;;;;;27.15;14.45;;;2.00;99.90;;;;;;4996499;28;20029;-74
2022/02/28 04:48:54;;;;;;;31.98;14.85;;;2.00;99.90;;;;;;4978489;28;20042;-74
2022/02/28 04:51:20;;;;;;;33.92;15.57;;;2.00;99.90;;;;;;4980529;28;20336;-74
2022/02/28 04:53:46;;;;;;;27.38;14.43;;;2.00;99.90;;;;;;4996540;28;20033;-75
2022/02/28 04:56:11;;;;;;;30.23;14.18;;;2.10;99.90;;;;;;5000520;28;20058;-74
2022/02/28 04:58:37;;;;;;;32.15;14.88;;;2.10;99.90;;;;;;4995920;28;20056;-74
2022/02/28 05:01:03;;;;;;;29.67;14.75;;;2.10;99.90;;;;;;4992135;28;20030;-74
2022/02/28 05:03:28;;;;;;;27.80;14.82;;;2.10;99.90;;;;;;4994002;28;20037;-74
2022/02/28 05:05:54;;;;;;;32.10;14.52;;;2.10;99.90;;;;;;4994871;28;20435;-74
2022/02/28 05:08:20;;;;;;;27.58;14.10;;;2.00;99.90;;;;;;4991579;28;20395;-74
2022/02/28 05:10:48;;;;;;;33.72;15.15;;;2.00;99.90;;;;;;4978717;28;20042;-74
2022/02/28 05:13:14;;;;;;;29.27;15.55;;;1.90;99.90;;;;;;4995930;28;20041;-75
2022/02/28 05:15:39;;;;;;;34.22;15.82;;;1.90;99.90;;;;;;4995109;28;20035;-74
2022/02/28 05:18:08;;;;;;;30.88;15.68;;;1.90;99.90;;;;;;4978071;28;20316;-74
2022/02/28 05:20:33;;;;;;;29.65;15.38;;;1.90;99.90;;;;;;4994569;28;20029;-74
2022/02/28 05:22:59;;;;;;;31.65;14.93;;;1.90;99.90;;;;;;4993088;28;20105;-74
2022/02/28 05:25:26;;;;;;;32.85;16.52;;;1.90;99.90;;;;;;4993604;28;20389;-74
2022/02/28 05:27:52;;;;;;;31.27;16.55;;;1.90;99.90;;;;;;4992294;28;20101;-74
2022/02/28 05:30:17;;;;;;;35.20;15.95;;;1.80;99.90;;;;;;4994187;28;20467;-74
2022/02/28 05:32:43;;;;;;;34.05;17.05;;;1.80;99.90;;;;;;4992819;28;20058;-74
2022/02/28 05:35:11;;;;;;;31.95;15.88;;;1.80;99.90;;;;;;4993735;28;20030;-74
2022/02/28 05:37:37;;;;;;;32.15;15.63;;;1.80;99.90;;;;;;4994326;28;20100;-74
2022/02/28 05:40:05;;;;;;;33.05;16.77;;;1.80;99.90;;;;;;4992155;28;20022;-75
2022/02/28 05:42:30;;;;;;;33.70;15.95;;;1.80;99.90;;;;;;4992018;28;20062;-74
2022/02/28 05:44:57;;;;;;;32.85;16.45;;;1.80;99.90;;;;;;4994312;28;20072;-75
2022/02/28 05:47:23;;;;;;;31.95;15.50;;;1.70;99.90;;;;;;4993192;28;20026;-75
2022/02/28 05:49:49;;;;;;;33.55;15.73;;;1.80;99.90;;;;;;4993202;28;20048;-75
2022/02/28 05:52:14;;;;;;;35.28;16.88;;;1.70;99.90;;;;;;4999155;28;20042;-74
2022/02/28 05:54:40;;;;;;;36.40;16.58;;;1.70;99.90;;;;;;4993581;28;20034;-74
2022/02/28 05:57:06;;;;;;;35.28;17.10;;;1.70;99.90;;;;;;4990020;28;20026;-74
2022/02/28 05:59:32;;;;;;;37.28;17.23;;;1.70;99.90;;;;;;4994932;28;20104;-74
2022/02/28 06:01:58;;;;;;;40.13;18.30;;;1.70;99.90;;;;;;4990202;28;20032;-74
2022/02/28 06:04:24;;;;;;;38.20;18.08;;;1.70;99.90;;;;;;4997211;28;20030;-74
2022/02/28 06:06:50;;;;;;;37.80;17.25;;;1.70;99.90;;;;;;4994723;28;20510;-74
2022/02/28 06:09:16;;;;;;;39.45;17.63;;;1.70;99.90;;;;;;4993198;28;20116;-74
2022/02/28 06:11:41;;;;;;;37.00;18.02;;;1.70;99.90;;;;;;4995439;28;20421;-74
2022/02/28 06:14:07;;;;;;;35.00;17.70;;;1.70;99.90;;;;;;4993719;28;20464;-75
2022/02/28 06:16:35;;;;;;;35.90;16.67;;;1.70;99.90;;;;;;4975766;28;20026;-75
2022/02/28 06:19:01;;;;;;;37.50;17.02;;;1.70;99.90;;;;;;4991438;28;20106;-75
2022/02/28 06:21:26;;;;;;;36.70;17.38;;;1.60;99.90;;;;;;4991026;28;20120;-75
2022/02/28 06:23:55;;;;;;;35.67;18.05;;;1.70;99.90;;;;;;4994265;28;20506;-75
2022/02/28 06:26:20;;;;;;;36.50;16.77;;;1.70;99.90;;;;;;4995221;28;20057;-75
2022/02/28 06:28:46;;;;;;;36.40;17.85;;;1.60;99.90;;;;;;4995213;28;20089;-77
2022/02/28 06:31:12;;;;;;;39.50;17.75;;;1.60;99.90;;;;;;4991601;28;20049;-77
2022/02/28 06:33:38;;;;;;;38.20;18.17;;;1.60;99.90;;;;;;4993569;28;20026;-75
2022/02/28 06:36:04;;;;;;;41.05;19.60;;;1.50;99.90;;;;;;4986875;28;20037;-75
2022/02/28 06:38:30;;;;;;;40.10;18.73;;;1.60;99.90;;;;;;4990192;28;20173;-76
2022/02/28 06:40:57;;;;;;;42.10;19.10;;;1.60;99.90;;;;;;4996601;28;20120;-76
2022/02/28 06:43:24;;;;;;;39.17;17.90;;;1.50;99.90;;;;;;4997308;28;20094;-75
2022/02/28 06:45:55;;;;;;;42.92;20.17;;;1.50;99.90;;;;;;4984242;28;20104;-75
2022/02/28 06:48:21;;;;;;;45.15;20.27;;;1.50;99.90;;;;;;4991882;28;20488;-74
2022/02/28 06:50:47;;;;;;;44.45;21.48;;;1.50;99.90;;;;;;4993904;28;20076;-74
2022/02/28 06:53:20;;;;;;;48.92;21.58;;;1.50;99.90;;;;;;4993404;28;20534;-74
2022/02/28 06:55:47;;;;;;;40.47;19.15;;;1.40;99.90;;;;;;4993728;28;20053;-74
2022/02/28 06:58:12;;;;;;;43.58;21.17;;;1.50;99.90;;;;;;4994309;28;20480;-74
2022/02/28 07:00:38;;;;;;;47.22;22.23;;;1.40;99.90;;;;;;4979724;28;20022;-74
2022/02/28 07:03:04;;;;;;;44.53;22.35;;;1.40;99.90;;;;;;4995599;28;20022;-74
2022/02/28 07:05:31;;;;;;;51.75;23.10;;;1.40;99.90;;;;;;4992045;28;20502;-74
2022/02/28 07:08:00;;;;;;;49.90;22.75;;;1.40;99.90;;;;;;4995468;28;20043;-74
2022/02/28 07:10:28;;;;;;;51.33;23.27;;;1.40;99.90;;;;;;4987062;28;20027;-78
2022/02/28 07:12:54;;;;;;;52.88;23.67;;;1.30;99.90;;;;;;4995573;28;20392;-75
2022/02/28 07:15:20;;;;;;;50.17;23.85;;;1.30;99.90;;;;;;4995262;28;20026;-75
2022/02/28 07:17:46;;;;;;;59.45;26.70;;;1.30;99.90;;;;;;4996567;28;20097;-75
2022/02/28 07:20:12;;;;;;;56.38;26.42;;;1.30;99.90;;;;;;4995451;28;20507;-76
2022/02/28 07:22:38;;;;;;;55.13;23.85;;;1.30;99.90;;;;;;4994960;28;20436;-76
2022/02/28 07:25:06;;;;;;;57.30;26.67;;;1.30;99.90;;;;;;4994625;28;20038;-75
2022/02/28 07:27:32;;;;;;;59.00;25.75;;;1.30;99.90;;;;;;4974052;28;20041;-75
2022/02/28 07:29:58;;;;;;;55.03;24.27;;;1.20;99.90;;;;;;5017639;28;20032;-74
2022/02/28 07:32:23;;;;;;;51.05;24.17;;;1.20;99.90;;;;;;4999538;28;20030;-76
2022/02/28 07:34:49;;;;;;;52.80;23.77;;;1.30;99.90;;;;;;5000748;28;20037;-76
2022/02/28 07:37:15;;;;;;;56.38;26.42;;;1.20;99.90;;;;;;5004882;28;20082;-75
2022/02/28 07:39:40;;;;;;;60.60;26.25;;;1.30;99.90;;;;;;5008164;28;20113;-75
2022/02/28 07:42:06;;;;;;;53.28;24.77;;;1.30;99.90;;;;;;5001192;28;20480;-75
2022/02/28 07:44:34;;;;;;;54.60;23.70;;;1.20;99.90;;;;;;5004752;28;20026;-75
2022/02/28 07:47:00;;;;;;;56.58;25.35;;;1.20;99.90;;;;;;4985413;28;20348;-75
2022/02/28 07:49:32;;;;;;;64.80;27.38;;;1.30;99.90;;;;;;4995579;28;20101;-75
2022/02/28 07:51:58;;;;;;;59.58;26.80;;;1.30;99.90;;;;;;4995060;28;20120;-75
2022/02/28 07:54:23;;;;;;;56.90;25.95;;;1.30;99.90;;;;;;4999804;28;20109;-75
2022/02/28 07:56:49;;;;;;;58.92;26.52;;;1.40;99.90;;;;;;4993863;28;20042;-76
2022/02/28 07:59:17;;;;;;;61.65;26.27;;;1.40;99.90;;;;;;4996059;28;20045;-76
2022/02/28 08:01:43;;;;;;;55.33;25.23;;;1.40;99.90;;;;;;4994060;28;20033;-76
2022/02/28 08:04:08;;;;;;;58.53;25.60;;;1.40;99.90;;;;;;4996411;28;20443;-76
2022/02/28 08:06:34;;;;;;;59.25;25.35;;;1.50;99.90;;;;;;4999217;28;20458;-76
2022/02/28 08:09:00;;;;;;;52.92;25.50;;;1.50;99.90;;;;;;4995447;28;20453;-75
2022/02/28 08:11:25;;;;;;;51.95;24.67;;;1.60;99.90;;;;;;4993871;28;20464;-76
2022/02/28 08:14:00;;;;;;;56.55;25.30;;;1.60;99.90;;;;;;5011120;28;20500;-75
2022/02/28 08:16:29;;;;;;;59.78;24.88;;;1.60;99.90;;;;;;4995906;28;20033;-76
2022/02/28 08:18:55;;;;;;;55.35;25.63;;;1.70;99.90;;;;;;4996788;28;20091;-76
2022/02/28 08:21:21;;;;;;;57.35;25.25;;;1.60;99.90;;;;;;4996827;28;20070;-76
2022/02/28 08:23:47;;;;;;;55.88;24.25;;;1.70;99.90;;;;;;4995343;28;20054;-76
2022/02/28 08:26:13;;;;;;;49.58;23.45;;;1.80;99.90;;;;;;4996031;28;20049;-76
2022/02/28 08:28:39;;;;;;;56.63;24.23;;;1.80;99.90;;;;;;4993779;28;20037;-76
2022/02/28 08:31:05;;;;;;;51.20;22.23;;;1.90;99.90;;;;;;4984736;28;20041;-76
2022/02/28 08:33:31;;;;;;;51.63;23.90;;;1.90;99.90;;;;;;4992817;28;20031;-76
2022/02/28 08:35:56;;;;;;;53.25;24.40;;;1.90;99.90;;;;;;4996087;28;20129;-76
2022/02/28 08:38:22;;;;;;;52.08;23.23;;;1.90;99.90;;;;;;4996424;28;20029;-75
2022/02/28 08:40:48;;;;;;;50.10;22.98;;;1.80;99.90;;;;;;4998547;28;20476;-75
2022/02/28 08:43:19;;;;;;;57.47;25.45;;;1.90;99.90;;;;;;4994764;28;20449;-75
2022/02/28 08:45:45;;;;;;;48.42;22.35;;;1.90;99.90;;;;;;4994315;28;20525;-75
2022/02/28 08:48:11;;;;;;;55.45;23.90;;;1.90;99.90;;;;;;4989606;28;20034;-75
2022/02/28 08:50:37;;;;;;;57.08;26.17;;;1.90;99.90;;;;;;4993907;28;20026;-75
2022/02/28 08:53:06;;;;;;;57.65;25.80;;;1.90;99.90;;;;;;4980200;28;20057;-77
2022/02/28 08:55:32;;;;;;;54.13;24.42;;;1.90;99.90;;;;;;4993212;28;20038;-75
2022/02/28 08:57:58;;;;;;;52.72;24.50;;;2.00;99.90;;;;;;4989718;28;20029;-75
2022/02/28 09:00:26;;;;;;;55.05;23.90;;;2.00;99.90;;;;;;4990402;28;20052;-75
2022/02/28 09:02:57;;;;;;;50.58;23.65;;;2.10;99.90;;;;;;4989923;28;20113;-75
2022/02/28 09:05:22;;;;;;;54.00;25.35;;;2.10;99.90;;;;;;4978474;28;20090;-75
2022/02/28 09:07:48;;;;;;;53.50;24.75;;;2.10;99.90;;;;;;4994694;28;20081;-75
2022/02/28 09:10:15;;;;;;;57.70;26.00;;;2.10;99.90;;;;;;5019867;22;20052;-73
2022/02/28 09:12:40;;;;;;;58.83;26.02;;;2.20;99.90;;;;;;5022058;28;20044;-73
2022/02/28 09:15:07;;;;;;;56.00;24.92;;;2.20;99.90;;;;;;5019827;28;20022;-70
2022/02/28 09:17:34;;;;;;;50.60;23.33;;;2.20;99.90;;;;;;5019547;28;20385;-71
2022/02/28 09:20:00;;;;;;;55.67;25.23;;;2.30;99.90;;;;;;5021038;28;20037;-70
2022/02/28 09:22:26;;;;;;;56.42;24.63;;;2.20;99.90;;;;;;5000697;28;20476;-70
2022/02/28 09:24:54;;;;;;;53.83;24.95;;;2.30;99.90;;;;;;5001519;28;20037;-71
2022/02/28 09:27:20;;;;;;;59.28;25.63;;;2.40;99.90;;;;;;5001122;28;20026;-71
2022/02/28 09:29:46;;;;;;;59.80;25.85;;;2.30;99.90;;;;;;5001050;28;20476;-70
2022/02/28 09:32:12;;;;;;;58.30;27.35;;;2.30;99.90;;;;;;5001249;28;20030;-71
2022/02/28 09:34:38;;;;;;;56.35;24.65;;;2.30;99.90;;;;;;4998095;28;20032;-71
2022/02/28 09:37:04;;;;;;;54.17;24.35;;;2.30;99.90;;;;;;4984059;28;20025;-70
2022/02/28 09:39:30;;;;;;;46.92;22.60;;;2.40;99.90;;;;;;4985688;28;20490;-72
2022/02/28 09:41:58;;;;;;;54.67;24.95;;;2.30;99.90;;;;;;5002346;28;20498;-73
2022/02/28 09:44:24;;;;;;;51.20;24.42;;;2.40;99.90;;;;;;5005851;28;20022;-72
2022/02/28 09:46:54;;;;;;;55.05;24.80;;;2.40;99.90;;;;;;5002740;28;20049;-71
2022/02/28 09:49:20;;;;;;;53.45;24.27;;;2.50;99.90;;;;;;4998911;28;20058;-71
2022/02/28 09:51:46;;;;;;;60.80;25.77;;;2.60;99.90;;;;;;4996382;28;20057;-71
2022/02/28 09:54:12;;;;;;;54.28;24.38;;;2.60;99.90;;;;;;5007452;28;20029;-71
2022/02/28 09:56:38;;;;;;;54.05;23.55;;;2.60;99.90;;;;;;5008808;28;20037;-71
2022/02/28 09:59:04;;;;;;;51.47;24.38;;;2.70;99.90;;;;;;5002807;28;20114;-71
2022/02/28 10:01:31;;;;;;;57.63;24.85;;;2.80;99.90;;;;;;4981904;28;20451;-71
2022/02/28 10:03:58;;;;;;;52.95;24.10;;;3.00;99.90;;;;;;4998640;28;20030;-71
2022/02/28 10:06:24;;;;;;;49.60;22.98;;;3.10;99.90;;;;;;4998472;28;20496;-71
2022/02/28 10:08:52;;;;;;;46.95;21.85;;;3.30;99.90;;;;;;5009134;28;20034;-71
2022/02/28 10:11:32;;;;;;;48.67;23.40;;;3.50;99.90;;;;;;5001150;28;20091;-71
2022/02/28 10:14:00;;;;;;;47.60;21.95;;;3.60;99.90;;;;;;4984737;28;20451;-71
2022/02/28 10:16:38;;;;;;;46.20;22.23;;;3.90;99.90;;;;;;5001355;28;20026;-71
2022/02/28 10:19:07;;;;;;;44.17;20.55;;;4.00;99.90;;;;;;4998684;28;20402;-70
2022/02/28 10:21:45;;;;;;;45.50;21.70;;;4.50;99.90;;;;;;4998530;28;20042;-72
2022/02/28 10:24:18;;;;;;;42.88;20.60;;;5.00;99.90;;;;;;5001349;28;20038;-71
2022/02/28 10:26:55;;;;;;;44.60;22.58;;;5.40;99.90;;;;;;5002207;28;20037;-71
2022/02/28 10:29:21;;;;;;;40.28;21.10;;;5.90;99.90;;;;;;4998523;28;20034;-71
2022/02/28 10:31:47;;;;;;;36.95;20.52;;;6.50;99.90;;;;;;4998696;28;20443;-72
2022/02/28 10:34:24;;;;;;;36.67;20.00;;;7.20;99.90;;;;;;5001373;28;20084;-72
2022/02/28 10:36:58;;;;;;;37.17;20.77;;;8.20;99.80;;;;;;4997013;28;20518;-71
2022/02/28 10:39:28;;;;;;;31.08;19.50;;;8.70;95.80;;;;;;4999161;28;20117;-71
2022/02/28 10:41:57;;;;;;;34.50;20.20;;;10.20;85.90;;;;;;4998603;28;20030;-72
2022/02/28 10:44:24;;;;;;;29.38;16.15;;;11.70;71.80;;;;;;5000528;28;20027;-71
2022/02/28 10:46:51;;;;;;;28.02;17.83;;;13.30;67.50;;;;;;4998952;28;20026;-70
2022/02/28 10:49:21;;;;;;;26.00;17.70;;;15.20;58.50;;;;;;4999268;28;20061;-71
2022/02/28 10:51:48;;;;;;;26.02;17.73;;;16.10;53.50;;;;;;4999352;28;20485;-70
2022/02/28 10:54:20;;;;;;;26.13;16.50;;;17.00;52.70;;;;;;4998082;28;20068;-70
2022/02/28 10:56:54;;;;;;;22.55;15.02;;;17.90;49.00;;;;;;4999722;28;20027;-70
2022/02/28 10:59:21;;;;;;;20.42;15.07;;;18.60;46.90;;;;;;4997793;28;20037;-70
2022/02/28 11:01:48;;;;;;;26.60;17.15;;;19.00;46.30;;;;;;4997356;28;20063;-69
2022/02/28 11:04:14;;;;;;;24.67;16.77;;;19.60;42.40;;;;;;5002942;28;20032;-70
2022/02/28 11:06:41;;;;;;;22.58;16.33;;;19.20;42.00;;;;;;5003225;28;20030;-71
2022/02/28 11:09:07;;;;;;;24.95;16.65;;;19.30;43.10;;;;;;4984024;28;20116;-71
2022/02/28 11:11:33;;;;;;;22.98;15.70;;;19.40;42.50;;;;;;5001462;28;20042;-68
2022/02/28 11:13:59;;;;;;;20.17;15.85;;;19.40;43.40;;;;;;5001596;28;20029;-71
2022/02/28 11:16:29;;;;;;;27.60;16.33;;;19.70;40.60;;;;;;5004543;28;20040;-70
2022/02/28 11:18:59;;;;;;;20.33;14.73;;;20.10;42.00;;;;;;4984351;28;20029;-70
2022/02/28 11:21:25;;;;;;;20.70;15.00;;;20.60;40.80;;;;;;5002409;28;20037;-73
2022/02/28 11:23:54;;;;;;;17.98;13.40;;;20.60;38.90;;;;;;5004222;28;20113;-71
2022/02/28 11:26:22;;;;;;;21.20;15.77;;;20.70;39.30;;;;;;5001818;28;20541;-70
2022/02/28 11:28:49;;;;;;;21.92;15.10;;;20.60;38.80;;;;;;5001244;28;20030;-70
2022/02/28 11:31:17;;;;;;;20.67;15.15;;;20.50;38.80;;;;;;5001259;28;20466;-69
2022/02/28 11:34:06;;;;;;;19.95;14.68;;;20.70;37.90;;;;;;5027476;28;20037;-70
2022/02/28 11:37:12;;;;;;;17.00;13.57;;;19.80;38.80;;;;;;4985133;28;20030;-70
2022/02/28 11:39:43;;;;;;;19.77;14.45;;;19.20;40.80;;;;;;4946427;28;20158;-70
2022/02/28 11:42:10;;;;;;;19.67;14.63;;;18.70;41.10;;;;;;4964083;28;20069;-71
2022/02/28 11:44:51;;;;;;;21.77;14.80;;;18.30;41.40;;;;;;4959228;28;20622;-72
2022/02/28 11:47:19;;;;;;;21.80;15.35;;;17.90;41.60;;;;;;4961803;28;20038;-70
2022/02/28 11:49:46;;;;;;;22.10;15.65;;;16.60;44.90;;;;;;4965134;28;20098;-70
2022/02/28 11:52:36;;;;;;;22.38;15.40;;;15.60;46.60;;;;;;4962519;28;20158;-70
2022/02/28 11:55:11;;;;;;;21.95;15.07;;;14.30;48.90;;;;;;4963340;28;20153;-71
2022/02/28 11:57:58;;;;;;;21.20;14.95;;;13.20;51.70;;;;;;4963287;28;20054;-71
2022/02/28 12:00:44;;;;;;;21.25;14.82;;;12.20;54.80;;;;;;4962348;28;20044;-70
2022/02/28 12:03:22;;;;;;;22.50;14.07;;;11.30;57.20;;;;;;4955210;28;20043;-70
2022/02/28 12:05:49;;;;;;;23.15;15.20;;;10.70;59.20;;;;;;4960611;28;20049;-69
2022/02/28 12:08:33;;;;;;;24.38;15.13;;;10.20;61.00;;;;;;4961226;28;20568;-69
2022/02/28 12:11:20;;;;;;;29.13;16.15;;;9.80;62.00;;;;;;4987370;28;20096;-69
2022/02/28 12:14:02;;;;;;;26.25;14.90;;;9.40;63.80;;;;;;5033413;28;20025;-69
2022/02/28 12:19:34;;;;;;;24.67;14.82;;;8.80;65.70;;;;;;5050709;28;20032;-71
2022/02/28 12:22:01;;;;;;;26.88;15.32;;;8.50;67.10;;;;;;5049757;28;20501;-70
2022/02/28 12:25:04;;;;;;;22.50;14.35;;;8.30;68.00;;;;;;5065935;28;20426;-71
2022/02/28 12:27:41;;;;;;;28.05;15.73;;;8.10;70.00;;;;;;5060407;28;20020;-71
2022/02/28 12:30:36;;;;;;;22.73;14.48;;;7.90;71.30;;;;;;5061870;28;20033;-71
2022/02/28 12:33:02;;;;;;;22.92;12.95;;;7.70;72.20;;;;;;5006014;28;20056;-71
2022/02/28 12:35:50;;;;;;;27.25;14.45;;;7.60;73.50;;;;;;5027542;28;20029;-70
2022/02/28 12:38:16;;;;;;;58.28;31.80;;;7.50;74.90;;;;;;5056764;28;20040;-71
2022/02/28 12:40:51;;;;;;;39.22;23.02;;;7.40;76.00;;;;;;5063315;28;20028;-72